»·PEaware :: N3318Q KRDD-O08

N3318Q :: KRDD-O08

FLIGHT INFORMATION

Flight Status: Arrived
Operator: Privately registered:
United States
More flights under this callsign
Pilot: Dan A. (12711)
Aircraft: CESSNA 310
(C310)
More flights by this aircraft type
Origin: KRDD Redding Mun
United States
Destination: O08 Colusa Co
United States
More flights between these airports :: More routes between these airports
Route: +HOMAN2 RBL V23 JINGO
File this flight plan on PilotEdge
Remarks:
Altitude:
(Current/Filed)
3,000ft
Speed:
(Current/Filed)
180kts
Departed: 18-Nov-17 02:18 PM
Arrived: 18-Nov-17 02:57 PM
Distance/Time
Traveled:
81nm/0:39
Distance/Time
To Go:
Arrived

Flight Plot

Page will automatically refresh every two minutes.

Flight plan parsing failed; only flown route is shown


Map Options




Map Legend


Flown Route
Filed Route
Departure Airport
Arrival Airport
Navaid (VOR, NDB)
Fix

Horizontal Profiles

Position Reports

Time Latitude Longitude Heading Altitude Ground
Speed
18-Nov-17 13:54 40.510006 -122.298418 88 505ft 0kts
18-Nov-17 13:55 40.510006 -122.298418 88 505ft 0kts
18-Nov-17 13:56 40.510007 -122.298415 88 505ft 0kts
18-Nov-17 13:57 40.510007 -122.298413 88 505ft 0kts
18-Nov-17 13:58 40.510007 -122.298412 88 505ft 0kts
18-Nov-17 13:59 40.510007 -122.298411 88 505ft 0kts
18-Nov-17 14:00 40.510007 -122.298409 88 505ft 0kts
18-Nov-17 14:01 40.510007 -122.298407 88 505ft 0kts
18-Nov-17 14:02 40.510007 -122.298404 88 505ft 0kts
18-Nov-17 14:03 40.510007 -122.298402 88 505ft 0kts
18-Nov-17 14:04 40.510007 -122.298400 88 505ft 0kts
18-Nov-17 14:05 40.510007 -122.298398 88 505ft 0kts
18-Nov-17 14:06 40.510007 -122.298395 88 505ft 0kts
18-Nov-17 14:07 40.510007 -122.298393 88 505ft 0kts
18-Nov-17 14:08 40.510007 -122.298391 88 505ft 0kts
18-Nov-17 14:09 40.510007 -122.298389 88 505ft 0kts
18-Nov-17 14:10 40.510007 -122.298387 88 505ft 0kts
18-Nov-17 14:11 40.510007 -122.298385 88 505ft 0kts
18-Nov-17 14:12 40.510007 -122.298382 88 505ft 0kts
18-Nov-17 14:13 40.510007 -122.298380 88 505ft 0kts
18-Nov-17 14:14 40.510007 -122.298378 88 505ft 0kts
18-Nov-17 14:15 40.510007 -122.298376 88 505ft 0kts
18-Nov-17 14:16 40.510007 -122.298374 88 505ft 0kts
18-Nov-17 14:17 40.510007 -122.298371 88 505ft 0kts
18-Nov-17 14:18 40.510007 -122.298369 88 505ft 0kts
18-Nov-17 14:19 40.510007 -122.298367 88 505ft 0kts
18-Nov-17 14:20 40.510007 -122.298365 88 505ft 0kts
18-Nov-17 14:21 40.510007 -122.298363 88 505ft 0kts
18-Nov-17 14:22 40.511655 -122.297246 91 505ft 9kts
18-Nov-17 14:23 40.494167 -122.285762 190 1237ft 108kts
18-Nov-17 14:24 40.462573 -122.288691 172 2440ft 133kts
18-Nov-17 14:25 40.429489 -122.284305 171 3243ft 118kts
18-Nov-17 14:26 40.397642 -122.279841 173 3796ft 111kts
18-Nov-17 14:27 40.374193 -122.258176 202 4566ft 98kts
18-Nov-17 14:28 40.360220 -122.229562 118 5069ft 123kts
18-Nov-17 14:29 40.334906 -122.201143 157 5103ft 126kts
18-Nov-17 14:30 40.303135 -122.190529 207 5114ft 124kts
18-Nov-17 14:31 40.272407 -122.212066 204 5099ft 125kts
18-Nov-17 14:32 40.240108 -122.231268 195 5097ft 133kts
18-Nov-17 14:33 40.203745 -122.246844 182 5101ft 138kts
18-Nov-17 14:34 40.165628 -122.245773 168 5099ft 137kts
18-Nov-17 14:35 40.127678 -122.240473 167 5099ft 136kts
18-Nov-17 14:36 40.092608 -122.232256 155 5107ft 139kts
18-Nov-17 14:37 40.060857 -122.216223 155 5102ft 138kts
18-Nov-17 14:38 40.025322 -122.197643 155 5103ft 137kts
18-Nov-17 14:39 39.990055 -122.179150 155 5104ft 136kts
18-Nov-17 14:40 39.954629 -122.160591 155 5103ft 137kts
18-Nov-17 14:41 39.919265 -122.142080 155 5103ft 137kts
18-Nov-17 14:42 39.883287 -122.123179 163 5116ft 142kts
18-Nov-17 14:43 39.845304 -122.103460 163 5126ft 151kts
18-Nov-17 14:44 39.805559 -122.082727 163 5125ft 155kts
18-Nov-17 14:45 39.765357 -122.061781 163 5124ft 155kts
18-Nov-17 14:46 39.725281 -122.040927 163 5125ft 155kts
18-Nov-17 14:47 39.685403 -122.020174 164 5293ft 144kts
18-Nov-17 14:48 39.647448 -122.003346 180 5536ft 148kts
18-Nov-17 14:49 39.612732 -122.001575 184 5499ft 150kts
18-Nov-17 14:50 39.564063 -122.000771 185 5499ft 149kts
18-Nov-17 14:51 39.522242 -122.000272 185 5156ft 149kts
18-Nov-17 14:52 39.488466 -121.999841 184 4933ft 143kts
18-Nov-17 14:53 39.441931 -121.999256 183 4544ft 142kts
18-Nov-17 14:54 39.402834 -121.998746 182 4249ft 140kts
18-Nov-17 14:55 39.363529 -122.009783 193 3396ft 147kts
18-Nov-17 14:56 39.330006 -122.018381 184 2334ft 144kts
18-Nov-17 14:57 39.294006 -122.018770 181 1903ft 121kts
18-Nov-17 14:58 39.260756 -122.018272 183 1680ft 121kts
18-Nov-17 14:59 39.229469 -122.016078 171 960ft 113kts
18-Nov-17 15:00 39.200797 -122.007621 161 579ft 96kts
18-Nov-17 15:01 39.178293 -121.992696 149 50ft 67kts
18-Nov-17 15:02 39.176785 -121.990998 345 50ft 0kts
18-Nov-17 15:03 39.177117 -121.991053 241 50ft 0kts
18-Nov-17 15:04 39.177117 -121.991053 241 50ft 0kts
18-Nov-17 15:05 39.177117 -121.991053 241 50ft 0kts
18-Nov-17 15:06 39.177117 -121.991053 241 50ft 0kts
18-Nov-17 15:07 39.177117 -121.991053 241 50ft 0kts
18-Nov-17 15:08 39.177117 -121.991053 241 50ft 0kts
18-Nov-17 15:09 39.177117 -121.991053 241 50ft 0kts
18-Nov-17 15:10 39.177117 -121.991053 241 50ft 0kts
18-Nov-17 15:11 39.177117 -121.991053 241 50ft 0kts
18-Nov-17 15:12 39.177117 -121.991053 241 50ft 0kts
18-Nov-17 15:13 39.177116 -121.991056 241 50ft 0kts
18-Nov-17 15:14 39.177115 -121.991058 241 50ft 0kts
18-Nov-17 15:15 39.177114 -121.991060 241 50ft 0kts
18-Nov-17 15:16 39.177246 -121.991506 324 50ft 1kts

Navigation Log

Ident Type
Flight plan parsing failed, navigation log unavailable